Impacts METAR Board
IDs:

KORD - Chicago/O'Hare Intl, IL, US

Updated at: 2000 UTC 15 Jun 2019
Potential Impact None Slight Moderate High
Time 15/08Z 15/09Z 15/10Z 15/11Z 15/12Z 15/13Z 15/14Z 15/15Z 15/16Z 15/17Z 15/18Z 15/19Z 15/20Z
Temp64 64 64 65 66 67 67 69 70 67 67 67 67
Dewpt55 55 56 56 57 58 58 59 59 61 61 62 63
Altim29.80 29.79 29.78 29.77 29.79 29.79 29.79 29.78 29.78 29.79 29.79 29.77 29.77
VIS10 10 10 10 10 10 10 10 10 9 10 7 10
CIG44 49 80 60 50 65 41 41 39 24 17 13 13
CoverOVCBKNBKNBKNOVCOVCOVCOVCOVCOVCOVCOVCOVC
FltCatVFRVFRVFRVFRVFRVFRVFRVFRVFRMVFRMVFRMVFRMVFR
WX-DZ-----------------RA---RA-RA
WDir200210210200200200210200180190210200160
WSpd8 12 11 9 11 11 7 10 9 9 8 3 4
WGst20 20 19 -- 20 -- 16 -- -- -- -- -- --
Raw hourly METARs
KORD 150751Z 20008G20KT 10SM -DZ FEW035 OVC044 18/13 A2980 RMK AO2 DZB47 SLP087 P0000 T01780128
KORD 150851Z 21012G20KT 10SM BKN049 BKN070 18/13 A2979 RMK AO2 DZE02RAB06E16 SLP084 P0000 60000 T01780128 56012
KORD 150951Z 21011G19KT 10SM SCT045 BKN080 18/13 A2978 RMK AO2 SLP081 T01780133
KORD 151051Z 20009KT 10SM FEW046 BKN060 BKN250 18/13 A2977 RMK AO2 SLP077 T01830133
KORD 151151Z 20011G20KT 10SM BKN050 BKN060 OVC150 19/14 A2979 RMK AO2 SLP085 60000 70005 T01890139 10189 20167 53001
KORD 151251Z 20011KT 10SM SCT048 BKN065 OVC100 19/14 A2979 RMK AO2 SLP083 T01940144
KORD 151351Z 21007G16KT 10SM BKN041 OVC049 19/14 A2979 RMK AO2 SLP085 T01940144
KORD 151451Z 20010KT 10SM BKN041 BKN049 OVC055 21/15 A2978 RMK AO2 RAB1358E08 SLP082 P0000 60000 T02060150 58004
KORD 151551Z 18009KT 10SM OVC039 21/15 A2978 RMK AO2 SLP081 T02110150
KORD 151651Z 19009KT 9SM -RA BKN024 OVC036 19/16 A2979 RMK AO2 RAB37 SLP085 P0000 T01940161
KORD 151751Z 21008KT 10SM BKN017 OVC033 19/16 A2979 RMK AO2 RAE14 SLP084 P0000 60000 T01940161 10211 20189 50003
KORD 151851Z 20003KT 7SM -RA OVC013 19/17 A2977 RMK AO2 LTG DSNT N AND NE RAB1755E04B37 SLP080 P0000 T01940167
KORD 151951Z 16004KT 10SM -RA BKN013 OVC019 19/17 A2977 RMK AO2 RAE16B47 SLP079 P0000 T01940172



Page loaded:  20:37 UTC  |   01:37 PM Pacific  |   02:37 PM Mountain  |   03:37 PM Central  |   04:37 PM Eastern

 

ADVISORIES

FORECASTS

FORECASTS

OBSERVATIONS

USER TOOLS

ABOUT US